createdAt,value
2019-04-25T17:51:40.616Z,46.10
2019-04-25T17:53:43.906Z,46.30
2019-04-25T17:55:47.266Z,46.70
2019-04-25T18:01:02.735Z,46.50
2019-04-25T18:03:04.016Z,46.70
2019-04-25T18:09:13.304Z,47.00
2019-04-25T18:14:14.614Z,47.10
2019-04-25T18:19:15.908Z,47.20
2019-04-25T18:24:17.285Z,47.20
2019-04-25T18:29:18.584Z,47.50
2019-04-25T18:34:19.883Z,47.50
2019-04-25T18:39:21.278Z,47.60
2019-04-25T18:44:22.569Z,47.60
2019-04-25T18:49:23.867Z,47.60
2019-04-25T18:54:25.161Z,47.60
2019-04-25T18:59:26.459Z,47.50
2019-04-25T19:04:27.758Z,47.70
2019-04-25T19:09:29.118Z,47.50
2019-04-25T19:14:30.409Z,47.40
2019-04-25T19:19:31.710Z,47.50
2019-04-25T19:24:33.102Z,47.50
2019-04-25T19:29:34.408Z,47.40
2019-04-25T19:34:35.992Z,47.40
2019-04-25T19:39:37.307Z,47.30
2019-04-25T19:44:38.689Z,47.40
2019-04-25T19:49:40.629Z,47.50
2019-04-25T19:54:43.236Z,47.50
2019-04-25T19:59:44.774Z,47.30
2019-04-25T20:04:46.775Z,47.30
2019-04-25T20:25:15.168Z,52.50
2019-04-25T20:30:16.533Z,56.50
2019-04-25T20:35:18.116Z,60.80
2019-04-25T20:40:19.489Z,63.60
2019-04-25T20:45:21.057Z,66.10
2019-04-25T20:50:22.362Z,66.70
2019-04-25T20:55:23.740Z,67.70
2019-04-25T21:00:24.992Z,68.30
2019-04-25T21:05:26.365Z,68.80
2019-04-25T21:10:27.640Z,68.50
2019-04-25T21:15:28.955Z,68.70
2019-04-25T21:20:30.344Z,68.90
2019-04-25T21:25:31.563Z,69.20
2019-04-25T21:30:32.867Z,69.20
2019-04-25T21:35:34.109Z,69.20
2019-04-25T21:40:35.651Z,68.90
2019-04-25T21:45:37.153Z,68.60
2019-04-25T21:50:38.804Z,68.40
2019-04-25T21:55:40.579Z,69.10
2019-04-25T22:00:42.256Z,69.50
2019-04-25T22:05:43.934Z,69.00
2019-04-25T22:10:45.156Z,69.40
2019-04-25T22:15:46.468Z,69.20
2019-04-25T22:20:48.144Z,69.10
2019-04-25T22:25:50.182Z,69.30
2019-04-25T22:30:51.862Z,69.80
2019-04-25T22:35:53.188Z,70.10
2019-04-25T22:40:54.773Z,70.20
2019-04-25T22:45:56.767Z,70.60
2019-04-25T22:50:59.417Z,70.80
2019-04-25T22:56:01.803Z,71.20
2019-04-25T23:01:03.262Z,71.60
2019-04-25T23:06:04.576Z,71.90
2019-04-25T23:11:06.958Z,72.20
2019-04-25T23:16:08.988Z,72.30
2019-04-25T23:21:10.486Z,72.40
2019-04-25T23:26:12.032Z,72.50
2019-04-25T23:31:14.700Z,72.60
2019-04-25T23:36:16.206Z,72.40
2019-04-25T23:41:17.413Z,71.70
2019-04-25T23:46:20.932Z,71.30
2019-04-25T23:51:22.299Z,71.20
2019-04-25T23:56:23.877Z,70.70
